createdAt,value
2022-08-17T00:00:06.387Z,22.31
2022-08-17T00:10:13.866Z,21.89
2022-08-17T00:20:18.452Z,22.01
2022-08-17T00:30:26.296Z,22.16
2022-08-17T00:40:40.759Z,21.84
2022-08-17T00:50:57.741Z,21.98
2022-08-17T01:01:02.187Z,21.53
2022-08-17T01:11:07.117Z,21.78
2022-08-17T01:21:13.991Z,21.61
2022-08-17T01:31:18.586Z,21.53
2022-08-17T01:41:23.674Z,21.42
2022-08-17T01:51:32.472Z,21.66
2022-08-17T02:01:37.096Z,21.45
2022-08-17T02:11:41.976Z,21.28
2022-08-17T02:21:48.089Z,21.29
2022-08-17T02:31:52.694Z,21.29
2022-08-17T02:42:02.054Z,21.28
2022-08-17T02:52:07.821Z,21.31
2022-08-17T03:02:12.940Z,21.15
2022-08-17T03:12:17.964Z,20.95
2022-08-17T03:22:36.956Z,20.89
2022-08-17T03:32:45.777Z,20.76
2022-08-17T03:42:49.206Z,20.68
2022-08-17T03:53:25.934Z,20.72
2022-08-17T04:03:29.187Z,20.79
2022-08-17T04:13:33.889Z,20.63
2022-08-17T04:23:37.910Z,21.19
2022-08-17T04:33:44.132Z,21.38
2022-08-17T04:43:49.441Z,21.26
2022-08-17T04:53:56.354Z,21.45
2022-08-17T05:04:20.753Z,21.78
2022-08-17T05:14:32.456Z,22.11
2022-08-17T05:24:42.850Z,22.39
2022-08-17T05:35:00.640Z,22.92
2022-08-17T05:45:04.136Z,23.28
2022-08-17T05:55:15.129Z,23.49
2022-08-17T06:05:19.444Z,24.04
2022-08-17T06:15:35.543Z,23.92
2022-08-17T06:25:44.375Z,25.20
2022-08-17T06:35:56.857Z,25.86
2022-08-17T06:46:06.780Z,26.37
2022-08-17T06:56:12.911Z,26.93
2022-08-17T07:06:18.840Z,27.81
2022-08-17T07:16:27.572Z,28.70
2022-08-17T07:26:30.735Z,29.54
2022-08-17T07:36:36.082Z,30.10
2022-08-17T07:47:06.951Z,30.45
2022-08-17T07:57:31.113Z,30.68
2022-08-17T08:07:40.054Z,30.28
2022-08-17T08:17:52.194Z,30.88
2022-08-17T08:28:04.824Z,31.85
2022-08-17T08:38:20.044Z,32.20
2022-08-17T08:48:56.189Z,32.04
2022-08-17T08:59:07.290Z,32.87
2022-08-17T09:09:18.221Z,32.76
2022-08-17T09:19:32.483Z,33.62
2022-08-17T09:29:40.577Z,33.93
2022-08-17T09:39:52.823Z,33.93
2022-08-17T09:50:00.424Z,33.54
2022-08-17T10:00:21.432Z,33.93
2022-08-17T10:10:30.567Z,33.97
2022-08-17T10:20:42.940Z,34.60
2022-08-17T10:30:49.928Z,35.18
2022-08-17T10:40:58.460Z,35.81
2022-08-17T10:51:02.757Z,35.18
2022-08-17T11:01:08.911Z,35.02
2022-08-17T11:11:34.464Z,35.87
2022-08-17T11:21:57.374Z,37.37
2022-08-17T11:32:05.198Z,37.96
2022-08-17T11:42:11.940Z,36.95
2022-08-17T11:52:36.804Z,38.42
2022-08-17T12:02:48.242Z,38.84
2022-08-17T12:12:54.670Z,39.30
2022-08-17T12:23:05.011Z,39.78
2022-08-17T12:33:13.711Z,39.57
2022-08-17T12:43:33.685Z,39.62
2022-08-17T12:53:36.921Z,39.74
2022-08-17T13:03:43.074Z,39.78
2022-08-17T13:13:49.185Z,39.85
2022-08-17T13:23:59.057Z,39.68
2022-08-17T13:34:16.947Z,40.45
2022-08-17T13:44:34.470Z,40.05
2022-08-17T13:54:38.605Z,39.97
2022-08-17T14:04:45.069Z,40.19
2022-08-17T14:14:49.621Z,39.49
2022-08-17T14:24:54.692Z,39.56
2022-08-17T14:34:59.254Z,39.46
2022-08-17T14:45:06.322Z,38.71
2022-08-17T14:55:29.782Z,38.24
2022-08-17T15:05:36.892Z,38.68
2022-08-17T15:15:40.669Z,38.47
2022-08-17T15:25:45.677Z,38.37
2022-08-17T15:35:51.337Z,38.15
2022-08-17T15:46:00.993Z,38.05
2022-08-17T15:56:05.440Z,37.51
2022-08-17T16:06:09.999Z,37.18
2022-08-17T16:16:14.801Z,37.05
2022-08-17T16:26:19.988Z,36.77
2022-08-17T16:36:23.456Z,36.44
2022-08-17T16:46:29.402Z,36.27
2022-08-17T16:56:35.236Z,36.03
2022-08-17T17:06:45.140Z,35.80
2022-08-17T17:16:53.544Z,35.49
2022-08-17T17:27:19.937Z,35.18
2022-08-17T17:37:27.427Z,34.40
2022-08-17T17:47:33.700Z,33.39
2022-08-17T17:57:55.862Z,32.55
2022-08-17T18:08:09.253Z,31.72
2022-08-17T18:18:31.113Z,30.91
2022-08-17T18:28:38.979Z,30.28
2022-08-17T18:38:43.873Z,29.67
2022-08-17T18:48:59.131Z,29.01
2022-08-17T18:59:11.696Z,28.28
2022-08-17T19:09:34.068Z,27.92
2022-08-17T19:19:40.155Z,27.48
2022-08-17T19:29:50.173Z,27.14
2022-08-17T19:39:59.134Z,26.86
2022-08-17T19:50:10.177Z,26.71
2022-08-17T20:00:16.246Z,26.36
2022-08-17T20:10:28.144Z,26.09
2022-08-17T20:20:36.649Z,25.90
2022-08-17T20:30:42.310Z,25.73
2022-08-17T20:41:11.556Z,25.31
2022-08-17T20:51:27.147Z,25.15
2022-08-17T21:01:39.636Z,25.03
2022-08-17T21:12:05.283Z,24.63
2022-08-17T21:22:20.178Z,24.34
2022-08-17T21:32:31.322Z,24.37
2022-08-17T21:42:38.329Z,24.11
2022-08-17T21:52:42.885Z,23.90
2022-08-17T22:02:55.444Z,23.71
2022-08-17T22:13:16.916Z,23.62
2022-08-17T22:23:44.112Z,23.65
2022-08-17T22:33:50.166Z,23.34
2022-08-17T22:43:54.103Z,23.03
2022-08-17T22:54:20.135Z,22.75
2022-08-17T23:04:33.575Z,23.25
2022-08-17T23:14:42.496Z,23.25
2022-08-17T23:24:49.024Z,23.24
2022-08-17T23:34:53.576Z,23.18
2022-08-17T23:44:56.776Z,23.00
2022-08-17T23:55:01.377Z,23.02
